Time;durP1;ratioP1;P1;durP2;ratioP2;P2;SDS_P1;SDS_P2;PMS_P1;PMS_P2;Temp;Humidity;BMP_temperature;BMP_pressure;BME280_temperature;BME280_humidity;BME280_pressure;Samples;Min_cycle;Max_cycle;Signal;HPM_P1;HPM_P2
2023/12/06 00:00:24;;;;;;;;;;;;;;;8.01;92.35;101210.72;7310584;19;20294;-69
2023/12/06 00:02:52;;;;;;;;;;;;;;;8.04;93.08;101207.00;7313752;19;22639;-69
2023/12/06 00:05:19;;;;;;;;;;;;;;;8.02;92.77;101209.78;7309211;19;19914;-68
2023/12/06 00:07:46;;;;;;;;;;;;;;;8.01;93.02;101202.88;7315669;19;20453;-67
2023/12/06 00:10:13;;;;;;;;;;;;;;;7.98;92.88;101207.50;7318003;19;19929;-67
2023/12/06 00:12:41;;;;;;;;;;;;;;;7.95;92.20;101211.22;7306967;19;19926;-68
2023/12/06 00:15:09;;;;;;;;;;;;;;;7.89;91.95;101211.72;7314871;19;21248;-67
2023/12/06 00:17:36;;;;;;;;;;;;;;;7.83;92.13;101209.59;7316902;19;20404;-69
2023/12/06 00:20:05;;;;;;;;;;;;;;;7.78;92.01;101211.75;7307409;19;19915;-68
2023/12/06 00:22:32;;;;;;;;;;;;;;;7.74;92.22;101210.34;7309239;19;19934;-68
2023/12/06 00:24:59;;;;;;;;;;;;;;;7.71;92.15;101211.47;7307883;19;20307;-68
2023/12/06 00:27:26;;;;;;;;;;;;;;;7.70;92.23;101208.94;7313278;19;19922;-67
2023/12/06 00:29:53;;;;;;;;;;;;;;;7.67;92.84;101217.03;7313462;19;19960;-68
2023/12/06 00:32:20;;;;;;;;;;;;;;;7.67;92.75;101209.19;7314799;19;20009;-67
2023/12/06 00:34:47;;;;;;;;;;;;;;;7.65;93.05;101213.72;7319953;19;19922;-68
2023/12/06 00:37:15;;;;;;;;;;;;;;;7.63;92.96;101213.84;7324835;19;19918;-66
2023/12/06 00:39:42;;;;;;;;;;;;;;;7.61;92.64;101212.31;7333367;19;20417;-68
2023/12/06 00:42:09;;;;;;;;;;;;;;;7.56;92.95;101210.09;7319970;19;19919;-68
2023/12/06 00:44:36;;;;;;;;;;;;;;;7.52;93.22;101213.88;7321755;19;22594;-68
2023/12/06 00:47:03;;;;;;;;;;;;;;;7.51;93.70;101204.38;7310251;19;20102;-68
2023/12/06 00:49:30;;;;;;;;;;;;;;;7.50;93.76;101207.13;7307488;19;19914;-68
2023/12/06 00:51:58;;;;;;;;;;;;;;;7.46;93.62;101210.94;7312523;19;20270;-68
2023/12/06 00:54:25;;;;;;;;;;;;;;;7.41;93.98;101221.78;7313171;19;19923;-68
2023/12/06 00:56:53;;;;;;;;;;;;;;;7.39;94.39;101225.47;7319280;19;20604;-68
2023/12/06 00:59:20;;;;;;;;;;;;;;;7.41;94.94;101219.16;7306990;19;19914;-67
2023/12/06 01:01:47;;;;;;;;;;;;;;;7.42;95.23;101220.81;7318449;19;19922;-67
2023/12/06 01:04:14;;;;;;;;;;;;;;;7.39;94.77;101225.47;7299362;19;19990;-67
2023/12/06 01:06:41;;;;;;;;;;;;;;;7.36;95.20;101225.72;7332075;19;20195;-67
2023/12/06 01:09:08;;;;;;;;;;;;;;;7.31;95.14;101224.28;7324055;19;20316;-67
2023/12/06 01:11:35;;;;;;;;;;;;;;;7.32;95.56;101227.72;7323095;19;19952;-67
2023/12/06 01:14:02;;;;;;;;;;;;;;;7.28;95.95;101221.91;7313924;19;19927;-67
2023/12/06 01:16:29;;;;;;;;;;;;;;;7.27;95.99;101228.09;7317634;19;20348;-67
2023/12/06 01:18:56;;;;;;;;;;;;;;;7.29;96.04;101223.59;7304072;19;19915;-67
2023/12/06 01:21:23;;;;;;;;;;;;;;;7.27;96.07;101225.47;7319603;19;19918;-67
2023/12/06 01:23:50;;;;;;;;;;;;;;;7.26;95.55;101231.66;7311383;19;20672;-67
2023/12/06 01:26:17;;;;;;;;;;;;;;;7.25;95.59;101223.94;7326330;19;20039;-68
2023/12/06 01:28:44;;;;;;;;;;;;;;;7.25;95.69;101222.16;7318157;19;22290;-68
2023/12/06 01:31:11;;;;;;;;;;;;;;;7.20;95.91;101232.16;7317432;19;20308;-67
2023/12/06 01:33:38;;;;;;;;;;;;;;;7.24;96.30;101230.97;7309720;19;19926;-69
2023/12/06 01:36:05;;;;;;;;;;;;;;;7.27;96.47;101233.31;7317040;19;20090;-68
2023/12/06 01:38:32;;;;;;;;;;;;;;;7.23;96.41;101237.16;7311434;19;19941;-67
2023/12/06 01:40:59;;;;;;;;;;;;;;;7.21;96.22;101235.63;7322825;19;19942;-67
2023/12/06 01:43:26;;;;;;;;;;;;;;;7.21;96.48;101241.66;7315557;19;19927;-68
2023/12/06 01:45:54;;;;;;;;;;;;;;;7.18;96.47;101247.16;7317834;19;19923;-68
2023/12/06 01:48:21;;;;;;;;;;;;;;;7.15;96.68;101244.78;7310315;19;20431;-67
2023/12/06 01:50:50;;;;;;;;;;;;;;;7.15;96.65;101243.94;7304926;19;21149;-68
2023/12/06 01:53:17;;;;;;;;;;;;;;;7.13;97.05;101245.84;7305977;19;19929;-67
2023/12/06 01:55:44;;;;;;;;;;;;;;;7.15;97.38;101254.41;7317697;19;19922;-67
2023/12/06 01:58:13;;;;;;;;;;;;;;;7.12;97.03;101252.84;7306247;19;19926;-68
2023/12/06 02:00:40;;;;;;;;;;;;;;;7.10;97.17;101251.31;7299171;19;19929;-67
2023/12/06 02:03:08;;;;;;;;;;;;;;;7.11;96.49;101256.41;7327760;19;19956;-71
2023/12/06 02:05:35;;;;;;;;;;;;;;;7.10;96.74;101254.78;7315745;19;20283;-67
2023/12/06 02:08:04;;;;;;;;;;;;;;;7.12;96.54;101246.78;7315021;19;19919;-67
2023/12/06 02:10:31;;;;;;;;;;;;;;;7.16;96.32;101259.50;7321484;19;19923;-68
2023/12/06 02:12:58;;;;;;;;;;;;;;;7.19;96.81;101255.81;7319704;19;19986;-67
2023/12/06 02:15:25;;;;;;;;;;;;;;;7.16;95.94;101243.00;7319186;19;19933;-68
2023/12/06 02:17:52;;;;;;;;;;;;;;;7.15;95.43;101247.41;7320802;19;19995;-68
2023/12/06 02:20:19;;;;;;;;;;;;;;;7.15;95.12;101246.56;7311256;19;19926;-68
2023/12/06 02:22:48;;;;;;;;;;;;;;;7.10;95.06;101246.09;7316594;19;20487;-67
2023/12/06 02:25:15;;;;;;;;;;;;;;;7.08;95.31;101250.59;7313517;19;21356;-67
2023/12/06 02:30:10;;;;;;;;;;;;;;;7.00;95.29;101250.38;7317501;19;20152;-66
2023/12/06 02:32:38;;;;;;;;;;;;;;;6.98;95.83;101271.41;7325947;19;20376;-67
2023/12/06 02:35:08;;;;;;;;;;;;;;;6.92;96.13;101261.41;7324244;19;19919;-68
2023/12/06 02:37:35;;;;;;;;;;;;;;;6.85;96.06;101255.00;7313935;19;19972;-67
2023/12/06 02:40:04;;;;;;;;;;;;;;;6.84;96.72;101262.03;7313284;19;20374;-67
2023/12/06 02:42:31;;;;;;;;;;;;;;;6.87;96.99;101258.31;7303711;19;19922;-67
2023/12/06 02:44:58;;;;;;;;;;;;;;;6.83;96.70;101252.50;7320872;19;19930;-67
2023/12/06 02:47:25;;;;;;;;;;;;;;;6.85;97.13;101249.78;7322346;19;19937;-67
2023/12/06 02:49:52;;;;;;;;;;;;;;;6.83;97.07;101257.75;7319487;19;19930;-68
2023/12/06 02:52:19;;;;;;;;;;;;;;;6.81;96.47;101254.41;7293782;19;19910;-67
2023/12/06 02:54:46;;;;;;;;;;;;;;;6.80;96.00;101265.84;7297655;19;19918;-68
2023/12/06 02:57:13;;;;;;;;;;;;;;;6.79;96.04;101263.31;7321003;19;21204;-67
2023/12/06 02:59:40;;;;;;;;;;;;;;;6.71;95.90;101255.22;7313235;19;20853;-67
2023/12/06 03:02:07;;;;;;;;;;;;;;;6.65;96.49;101259.16;7316568;19;19978;-67
2023/12/06 03:04:34;;;;;;;;;;;;;;;6.67;97.26;101253.78;7308843;19;19919;-68
2023/12/06 03:07:01;;;;;;;;;;;;;;;6.65;96.64;101253.09;7312937;19;19926;-68
2023/12/06 03:09:28;;;;;;;;;;;;;;;6.60;96.94;101242.16;7328925;19;19983;-67
2023/12/06 03:11:55;;;;;;;;;;;;;;;6.59;96.31;101240.47;7330552;19;19943;-67
2023/12/06 03:14:23;;;;;;;;;;;;;;;6.57;96.40;101248.44;7317418;19;19946;-68
2023/12/06 03:16:50;;;;;;;;;;;;;;;6.53;96.16;101247.00;7315067;19;20943;-67
2023/12/06 03:19:17;;;;;;;;;;;;;;;6.55;96.74;101255.59;7302566;19;19960;-67
2023/12/06 03:21:44;;;;;;;;;;;;;;;6.55;96.56;101245.13;7303620;19;20676;-68
2023/12/06 03:24:11;;;;;;;;;;;;;;;6.49;96.19;101245.59;7314415;19;19976;-69
2023/12/06 03:26:38;;;;;;;;;;;;;;;6.49;96.54;101255.19;7312724;19;20015;-67
2023/12/06 03:29:05;;;;;;;;;;;;;;;6.43;96.21;101246.88;7303600;19;19919;-67
2023/12/06 03:31:32;;;;;;;;;;;;;;;6.41;96.38;101245.31;7307393;19;19985;-66
2023/12/06 03:33:59;;;;;;;;;;;;;;;6.41;96.65;101243.53;7318502;19;19921;-68
2023/12/06 03:36:26;;;;;;;;;;;;;;;6.34;96.73;101247.56;7306487;19;20490;-68
2023/12/06 03:38:53;;;;;;;;;;;;;;;6.33;96.13;101240.69;7319757;19;19958;-69
2023/12/06 03:41:20;;;;;;;;;;;;;;;6.29;96.31;101247.09;7311311;19;19979;-68
2023/12/06 03:43:47;;;;;;;;;;;;;;;6.25;95.98;101242.19;7318773;19;22182;-67
2023/12/06 03:46:28;;;;;;;;;;;;;;;6.19;96.01;101251.34;7311264;19;20884;-66
2023/12/06 03:48:55;;;;;;;;;;;;;;;6.20;96.45;101247.75;7306785;19;19956;-67
2023/12/06 03:51:22;;;;;;;;;;;;;;;6.24;97.04;101251.81;7312171;19;21086;-68
2023/12/06 03:53:49;;;;;;;;;;;;;;;6.23;96.83;101252.75;7315289;19;19918;-68
2023/12/06 03:56:16;;;;;;;;;;;;;;;6.23;97.04;101252.75;7316021;19;22192;-68
2023/12/06 03:58:43;;;;;;;;;;;;;;;6.26;97.39;101249.91;7327817;19;20005;-68
2023/12/06 04:01:12;;;;;;;;;;;;;;;6.19;96.85;101248.72;7328937;19;20595;-67
2023/12/06 04:03:40;;;;;;;;;;;;;;;6.09;96.83;101252.97;7333493;19;19941;-67
2023/12/06 04:06:07;;;;;;;;;;;;;;;6.07;96.93;101256.63;7314956;19;20196;-67
2023/12/06 04:08:34;;;;;;;;;;;;;;;6.05;96.98;101261.13;7310451;19;19963;-69
2023/12/06 04:11:01;;;;;;;;;;;;;;;6.07;97.75;101259.22;7319995;19;21502;-68
2023/12/06 04:13:28;;;;;;;;;;;;;;;6.10;98.12;101257.22;7312165;19;19939;-69
2023/12/06 04:15:55;;;;;;;;;;;;;;;6.09;97.88;101260.81;7312144;19;19986;-68
2023/12/06 04:18:23;;;;;;;;;;;;;;;6.09;98.02;101262.56;7319660;19;19926;-68
2023/12/06 04:20:51;;;;;;;;;;;;;;;6.11;98.17;101268.50;7314928;19;19922;-68
2023/12/06 04:23:18;;;;;;;;;;;;;;;6.08;98.01;101274.81;7300542;19;19919;-68
2023/12/06 04:25:46;;;;;;;;;;;;;;;6.08;98.10;101272.19;7305941;19;20015;-69
2023/12/06 04:28:13;;;;;;;;;;;;;;;6.03;97.80;101268.25;7322672;19;20389;-68
2023/12/06 04:30:40;;;;;;;;;;;;;;;6.04;98.04;101270.75;7326839;19;20466;-68
2023/12/06 04:33:07;;;;;;;;;;;;;;;6.06;98.12;101270.63;7313697;19;19938;-68
2023/12/06 04:35:34;;;;;;;;;;;;;;;6.02;97.90;101270.03;7317720;19;20741;-68
2023/12/06 04:38:01;;;;;;;;;;;;;;;6.01;98.25;101282.25;7307492;19;19963;-67
2023/12/06 04:40:28;;;;;;;;;;;;;;;6.06;98.34;101291.50;7298574;19;20499;-69
2023/12/06 04:42:55;;;;;;;;;;;;;;;6.05;98.22;101288.06;7320114;19;19922;-69
2023/12/06 04:45:22;;;;;;;;;;;;;;;6.05;98.30;101295.06;7312926;19;21134;-69
2023/12/06 04:47:50;;;;;;;;;;;;;;;6.04;97.78;101293.44;7305964;19;20268;-68
2023/12/06 04:50:17;;;;;;;;;;;;;;;6.01;97.80;101289.25;7320708;19;19922;-69
2023/12/06 04:52:44;;;;;;;;;;;;;;;5.95;97.89;101292.28;7311354;19;19914;-68
2023/12/06 04:55:11;;;;;;;;;;;;;;;5.94;97.65;101294.06;7311119;19;20398;-69
2023/12/06 04:57:38;;;;;;;;;;;;;;;5.91;97.69;101291.69;7318207;19;21301;-68
2023/12/06 05:00:08;;;;;;;;;;;;;;;5.92;97.83;101290.75;7314159;19;20663;-68
2023/12/06 05:02:35;;;;;;;;;;;;;;;5.91;98.07;101289.09;7313580;19;20221;-68
2023/12/06 05:05:02;;;;;;;;;;;;;;;5.91;98.06;101290.84;7318739;19;19919;-68
2023/12/06 05:07:29;;;;;;;;;;;;;;;5.91;98.42;101290.84;7314252;19;19919;-68
2023/12/06 05:09:56;;;;;;;;;;;;;;;5.88;98.82;101291.09;7314785;19;19919;-69
2023/12/06 05:12:23;;;;;;;;;;;;;;;5.89;98.46;101288.34;7315849;19;19925;-69
2023/12/06 05:14:50;;;;;;;;;;;;;;;5.90;98.35;101292.63;7319752;19;20371;-69
2023/12/06 05:17:17;;;;;;;;;;;;;;;5.88;98.06;101293.69;7314223;19;21001;-69
2023/12/06 05:19:44;;;;;;;;;;;;;;;5.84;98.00;101287.81;7323300;19;19918;-69
2023/12/06 05:22:11;;;;;;;;;;;;;;;5.80;97.54;101285.53;7321665;19;20001;-68
2023/12/06 05:24:38;;;;;;;;;;;;;;;5.78;97.68;101288.28;7328384;19;19922;-68
2023/12/06 05:27:05;;;;;;;;;;;;;;;5.75;97.91;101287.66;7328106;19;20649;-68
2023/12/06 05:29:32;;;;;;;;;;;;;;;5.71;98.00;101291.44;7317866;19;19941;-68
2023/12/06 05:31:59;;;;;;;;;;;;;;;5.67;98.22;101297.81;7305779;19;19955;-69
2023/12/06 05:34:26;;;;;;;;;;;;;;;5.65;98.52;101299.69;7308774;19;19956;-69
2023/12/06 05:36:53;;;;;;;;;;;;;;;5.63;98.54;101297.22;7329875;19;19925;-69
2023/12/06 05:39:20;;;;;;;;;;;;;;;5.64;98.90;101285.00;7318521;19;19951;-68
2023/12/06 05:41:47;;;;;;;;;;;;;;;5.65;99.10;101286.66;7310863;19;20013;-68
2023/12/06 05:44:14;;;;;;;;;;;;;;;5.64;98.54;101290.22;7321126;19;19928;-68
2023/12/06 05:46:41;;;;;;;;;;;;;;;5.63;98.63;101297.22;7310502;19;19914;-68
2023/12/06 05:49:08;;;;;;;;;;;;;;;5.57;98.38;101292.44;7312727;19;20034;-69
2023/12/06 05:51:35;;;;;;;;;;;;;;;5.52;97.79;101297.97;7303016;19;19931;-67
2023/12/06 05:54:03;;;;;;;;;;;;;;;5.52;98.54;101289.31;7313044;19;20360;-69
2023/12/06 05:56:30;;;;;;;;;;;;;;;5.52;98.69;101295.38;7305780;19;19914;-69
2023/12/06 05:58:57;;;;;;;;;;;;;;;5.57;98.90;101295.88;7317307;19;20937;-68
2023/12/06 06:01:24;;;;;;;;;;;;;;;5.59;98.86;101301.78;7314662;19;20236;-67
2023/12/06 06:03:51;;;;;;;;;;;;;;;5.62;98.85;101305.16;7315775;19;20944;-68
2023/12/06 06:06:18;;;;;;;;;;;;;;;5.61;98.37;101301.69;7315473;19;19938;-69
2023/12/06 06:08:45;;;;;;;;;;;;;;;5.59;98.44;101309.63;7320198;19;19994;-68
2023/12/06 06:11:13;;;;;;;;;;;;;;;5.58;98.32;101310.59;7324480;19;19991;-68
2023/12/06 06:13:40;;;;;;;;;;;;;;;5.57;98.35;101316.75;7317286;19;19923;-68
2023/12/06 06:16:07;;;;;;;;;;;;;;;5.59;98.44;101316.63;7330798;19;19952;-69
2023/12/06 06:18:34;;;;;;;;;;;;;;;5.62;98.46;101326.84;7318242;19;20316;-69
2023/12/06 06:21:05;;;;;;;;;;;;;;;5.56;97.98;101322.91;7313856;19;20866;-68
2023/12/06 06:23:32;;;;;;;;;;;;;;;5.49;97.75;101324.25;7318017;19;19910;-69
2023/12/06 06:25:59;;;;;;;;;;;;;;;5.50;98.00;101323.31;7309944;19;19918;-69
2023/12/06 06:28:26;;;;;;;;;;;;;;;5.52;98.43;101321.47;7306160;19;19937;-69
2023/12/06 06:30:53;;;;;;;;;;;;;;;5.53;98.38;101323.13;7317699;19;19923;-69
2023/12/06 06:33:20;;;;;;;;;;;;;;;5.50;97.93;101327.72;7317844;19;19986;-70
2023/12/06 06:35:47;;;;;;;;;;;;;;;5.50;97.94;101323.31;7317683;19;19922;-69
2023/12/06 06:38:14;;;;;;;;;;;;;;;5.52;98.00;101333.66;7311328;19;20632;-68
2023/12/06 06:40:42;;;;;;;;;;;;;;;5.51;97.92;101329.38;7319157;19;20292;-69
2023/12/06 06:43:09;;;;;;;;;;;;;;;5.51;98.22;101335.44;7316357;19;19919;-69
2023/12/06 06:45:37;;;;;;;;;;;;;;;5.50;98.09;101336.38;7306451;19;19918;-69
2023/12/06 06:48:05;;;;;;;;;;;;;;;5.54;98.28;101335.22;7309883;19;20355;-68
2023/12/06 06:50:32;;;;;;;;;;;;;;;5.54;98.35;101340.44;7320504;19;19922;-68
2023/12/06 06:53:00;;;;;;;;;;;;;;;5.50;98.13;101345.97;7323017;19;19919;-69
2023/12/06 06:55:27;;;;;;;;;;;;;;;5.52;98.29;101354.53;7330369;19;19939;-68
2023/12/06 06:57:54;;;;;;;;;;;;;;;5.50;97.96;101357.25;7323250;19;19922;-69
2023/12/06 07:00:21;;;;;;;;;;;;;;;5.51;98.21;101351.09;7313658;19;19911;-68
2023/12/06 07:02:58;;;;;;;;;;;;;;;5.54;98.45;101345.66;7313700;19;19937;-68
2023/12/06 07:05:23;;;;;;;;;;;;;;;5.59;98.47;101353.16;7315364;19;20305;-68
2023/12/06 07:07:51;;;;;;;;;;;;;;;5.53;98.44;101353.59;7313263;19;19947;-67
2023/12/06 07:10:19;;;;;;;;;;;;;;;5.51;98.39;101348.50;7305802;19;20015;-69
2023/12/06 07:12:47;;;;;;;;;;;;;;;5.50;98.42;101352.03;7310616;19;20311;-70
2023/12/06 07:15:15;;;;;;;;;;;;;;;5.52;98.46;101341.50;7298096;19;19952;-69
2023/12/06 07:17:45;;;;;;;;;;;;;;;5.49;98.52;101337.31;7311833;19;20202;-70
2023/12/06 07:20:12;;;;;;;;;;;;;;;5.48;98.59;101332.22;7313491;19;19935;-68
2023/12/06 07:22:40;;;;;;;;;;;;;;;5.46;98.58;101332.31;7312215;19;19946;-68
2023/12/06 07:25:07;;;;;;;;;;;;;;;5.45;98.49;101329.81;7306597;19;19914;-67
2023/12/06 07:27:35;;;;;;;;;;;;;;;5.41;98.50;101341.41;7321104;19;20588;-67
2023/12/06 07:30:04;;;;;;;;;;;;;;;5.39;98.65;101344.13;7302396;19;19918;-68
2023/12/06 07:32:32;;;;;;;;;;;;;;;5.39;98.52;101357.16;7308537;19;22129;-68
2023/12/06 07:35:14;;;;;;;;;;;;;;;5.40;98.61;101358.00;7304974;19;19919;-69
2023/12/06 07:37:41;;;;;;;;;;;;;;;5.40;98.86;101358.84;7311938;19;19929;-68
2023/12/06 07:40:11;;;;;;;;;;;;;;;5.43;99.08;101361.25;7310226;19;19915;-68
2023/12/06 07:42:39;;;;;;;;;;;;;;;5.46;98.93;101352.34;7314107;19;19968;-68
2023/12/06 07:45:11;;;;;;;;;;;;;;;5.42;98.66;101358.75;7314516;19;20198;-67
2023/12/06 07:47:39;;;;;;;;;;;;;;;5.39;98.61;101358.94;7319993;19;19922;-68
2023/12/06 07:50:07;;;;;;;;;;;;;;;5.35;98.33;101370.53;7307829;19;19937;-69
2023/12/06 07:52:34;;;;;;;;;;;;;;;5.29;98.11;101377.00;7303231;19;19919;-68
2023/12/06 07:55:06;;;;;;;;;;;;;;;5.27;98.22;101381.50;7306677;19;20391;-68
2023/12/06 07:57:33;;;;;;;;;;;;;;;5.26;98.71;101372.00;7307957;19;20317;-69
2023/12/06 08:00:02;;;;;;;;;;;;;;;5.30;98.71;101375.22;7315652;19;19915;-69
2023/12/06 08:02:29;;;;;;;;;;;;;;;5.33;99.03;101367.22;7306536;19;20538;-68
2023/12/06 08:04:57;;;;;;;;;;;;;;;5.28;98.42;101379.72;7312245;19;20376;-68
2023/12/06 08:07:26;;;;;;;;;;;;;;;5.24;98.14;101367.81;7314300;19;19911;-67
2023/12/06 08:09:53;;;;;;;;;;;;;;;5.19;98.33;101365.53;7304907;19;19915;-68
2023/12/06 08:12:21;;;;;;;;;;;;;;;5.18;98.57;101369.91;7299277;19;20282;-67
2023/12/06 08:14:48;;;;;;;;;;;;;;;5.21;98.65;101378.47;7309115;19;19933;-67
2023/12/06 08:17:16;;;;;;;;;;;;;;;5.22;98.68;101380.16;7310284;19;20348;-68
2023/12/06 08:19:43;;;;;;;;;;;;;;;5.25;98.58;101382.53;7324834;19;21282;-69
2023/12/06 08:22:11;;;;;;;;;;;;;;;5.25;98.61;101372.09;7325178;19;19929;-68
2023/12/06 08:24:39;;;;;;;;;;;;;;;5.28;98.40;101369.28;7314722;19;21779;-68
2023/12/06 08:27:06;;;;;;;;;;;;;;;5.22;97.88;101372.31;7322849;19;19922;-68
2023/12/06 08:29:33;;;;;;;;;;;;;;;5.23;98.07;101364.41;7309799;19;20901;-68
2023/12/06 08:32:00;;;;;;;;;;;;;;;5.21;97.84;101368.88;7313842;19;22859;-68
2023/12/06 08:34:31;;;;;;;;;;;;;;;5.23;97.96;101374.84;7311533;19;20398;-68
2023/12/06 08:37:10;;;;;;;;;;;;;;;5.31;98.12;101374.28;7302408;19;19923;-67
2023/12/06 08:39:37;;;;;;;;;;;;;;;5.34;98.18;101369.69;7302322;19;20002;-68
2023/12/06 08:42:05;;;;;;;;;;;;;;;5.38;97.79;101371.16;7308645;19;19952;-70
2023/12/06 08:44:32;;;;;;;;;;;;;;;5.43;97.92;101378.69;7318928;19;21166;-68
2023/12/06 08:47:00;;;;;;;;;;;;;;;5.39;97.80;101369.38;7299443;19;19923;-68
2023/12/06 08:49:27;;;;;;;;;;;;;;;5.42;97.73;101379.59;7313598;19;19923;-69
2023/12/06 08:51:55;;;;;;;;;;;;;;;5.41;97.46;101375.31;7308087;19;20241;-68
2023/12/06 08:54:23;;;;;;;;;;;;;;;5.46;97.45;101375.84;7307494;19;19941;-69
2023/12/06 08:56:50;;;;;;;;;;;;;;;5.40;97.26;101381.47;7308324;19;19925;-68
2023/12/06 08:59:17;;;;;;;;;;;;;;;5.39;97.14;101385.84;7315557;19;20466;-69
2023/12/06 09:01:45;;;;;;;;;;;;;;;5.41;97.43;101381.38;7327134;19;19922;-68
2023/12/06 09:04:13;;;;;;;;;;;;;;;5.41;97.08;101385.75;7329390;19;19915;-68
2023/12/06 09:06:38;;;;;;;;;;;;;;;5.42;97.25;101384.81;7328676;19;19923;-68
2023/12/06 09:09:07;;;;;;;;;;;;;;;5.42;97.43;101385.66;7311311;19;20451;-68
2023/12/06 09:11:35;;;;;;;;;;;;;;;5.47;97.88;101377.50;7312149;19;19921;-69
2023/12/06 09:14:02;;;;;;;;;;;;;;;5.53;97.72;101377.94;7305106;19;19974;-68
2023/12/06 09:16:29;;;;;;;;;;;;;;;5.51;97.03;101382.41;7315179;19;19930;-69
2023/12/06 09:19:00;;;;;;;;;;;;;;;5.52;96.85;101378.03;7313237;19;19989;-67
2023/12/06 09:21:38;;;;;;;;;;;;;;;5.52;96.25;101371.03;7315366;19;20776;-69
2023/12/06 09:24:10;;;;;;;;;;;;;;;5.58;96.06;101383.66;7319724;19;19929;-67
2023/12/06 09:26:38;;;;;;;;;;;;;;;5.64;95.44;101386.78;7317911;19;19919;-69
2023/12/06 09:29:06;;;;;;;;;;;;;;;5.65;95.51;101383.22;7332274;19;19918;-68
2023/12/06 09:31:33;;;;;;;;;;;;;;;5.67;96.01;101381.34;7314423;19;19915;-67
2023/12/06 09:34:01;;;;;;;;;;;;;;;5.70;96.17;101386.34;7313757;19;19922;-68
2023/12/06 09:36:29;;;;;;;;;;;;;;;5.72;95.96;101384.47;7321204;19;19995;-69
2023/12/06 09:38:58;;;;;;;;;;;;;;;5.79;96.19;101388.31;7321608;19;19925;-68
2023/12/06 09:41:25;;;;;;;;;;;;;;;5.82;96.20;101398.53;7326384;19;19911;-68
2023/12/06 09:43:53;;;;;;;;;;;;;;;5.86;96.17;101395.59;7314371;19;20163;-67
2023/12/06 09:46:20;;;;;;;;;;;;;;;5.83;95.62;101403.66;7316084;19;20932;-70
2023/12/06 09:48:48;;;;;;;;;;;;;;;5.83;95.05;101393.22;7310723;19;20167;-67
2023/12/06 09:51:16;;;;;;;;;;;;;;;5.89;95.54;101411.06;7310394;19;20424;-68
2023/12/06 09:53:44;;;;;;;;;;;;;;;5.91;95.37;101411.81;7322728;19;19952;-67
2023/12/06 09:56:15;;;;;;;;;;;;;;;5.93;95.31;101407.31;7308401;19;20015;-68
2023/12/06 09:58:51;;;;;;;;;;;;;;;5.99;95.46;101406.88;7298924;19;19985;-69
2023/12/06 10:01:19;;;;;;;;;;;;;;;6.06;95.48;101402.03;7318821;19;22732;-68
2023/12/06 10:03:46;;;;;;;;;;;;;;;6.09;95.08;101396.63;7317930;19;22532;-68
2023/12/06 10:06:16;;;;;;;;;;;;;;;6.13;94.71;101392.84;7306238;19;19974;-67
2023/12/06 10:08:48;;;;;;;;;;;;;;;6.15;94.43;101398.75;7314642;19;19960;-68
2023/12/06 10:11:17;;;;;;;;;;;;;;;6.16;93.58;101395.22;7316419;19;19915;-67
2023/12/06 10:13:46;;;;;;;;;;;;;;;6.20;93.03;101406.28;7324043;19;19923;-68
2023/12/06 10:16:14;;;;;;;;;;;;;;;6.20;92.80;101404.50;7317095;19;19919;-68
2023/12/06 10:18:44;;;;;;;;;;;;;;;6.24;92.64;101400.75;7322289;19;19918;-68
2023/12/06 10:21:12;;;;;;;;;;;;;;;6.30;93.29;101394.22;7315394;19;22598;-69
2023/12/06 10:23:40;;;;;;;;;;;;;;;6.37;93.09;101390.22;7304915;19;20577;-68
2023/12/06 10:26:16;;;;;;;;;;;;;;;6.45;93.27;101387.88;7310434;19;19922;-69
2023/12/06 10:28:45;;;;;;;;;;;;;;;6.48;92.76;101395.50;7309893;19;19941;-67
2023/12/06 10:31:12;;;;;;;;;;;;;;;6.47;92.74;101383.38;7313507;19;19965;-67
2023/12/06 10:33:41;;;;;;;;;;;;;;;6.49;92.33;101384.09;7319182;19;19929;-69
2023/12/06 10:36:17;;;;;;;;;;;;;;;6.50;92.16;101388.41;7322505;19;19921;-70
2023/12/06 10:38:46;;;;;;;;;;;;;;;6.58;92.35;101388.66;7308926;19;19921;-69
2023/12/06 10:41:17;;;;;;;;;;;;;;;6.59;92.43;101387.72;7313829;19;19960;-70
2023/12/06 10:43:46;;;;;;;;;;;;;;;6.56;91.66;101387.91;7314843;19;19921;-68
2023/12/06 10:46:15;;;;;;;;;;;;;;;6.59;91.29;101386.88;7314653;19;21526;-68
2023/12/06 10:48:43;;;;;;;;;;;;;;;6.66;91.74;101382.84;7319305;19;19922;-68
2023/12/06 10:51:11;;;;;;;;;;;;;;;6.74;92.02;101377.88;7309318;19;21528;-68
2023/12/06 10:53:41;;;;;;;;;;;;;;;6.78;92.15;101381.94;7328221;19;20340;-69
2023/12/06 10:56:09;;;;;;;;;;;;;;;6.77;91.76;101372.41;7325248;19;19922;-69
2023/12/06 10:58:38;;;;;;;;;;;;;;;6.81;91.68;101374.69;7311817;19;20689;-68
2023/12/06 11:01:05;;;;;;;;;;;;;;;6.87;91.52;101376.00;7310627;19;20346;-69
2023/12/06 11:03:32;;;;;;;;;;;;;;;6.94;91.04;101381.63;7318989;19;19937;-69
2023/12/06 11:06:13;;;;;;;;;;;;;;;6.97;90.96;101378.75;7310253;19;20276;-68
2023/12/06 11:08:53;;;;;;;;;;;;;;;7.00;90.96;101382.00;7325813;19;20333;-68
2023/12/06 11:11:27;;;;;;;;;;;;;;;7.02;90.82;101374.03;7314605;19;20427;-67
2023/12/06 11:14:09;;;;;;;;;;;;;;;7.06;90.60;101381.50;7315916;19;19918;-69
2023/12/06 11:16:36;;;;;;;;;;;;;;;7.13;89.66;101380.09;7318231;19;20351;-68
2023/12/06 11:19:04;;;;;;;;;;;;;;;7.18;89.63;101374.53;7320834;19;19919;-69
2023/12/06 11:21:32;;;;;;;;;;;;;;;7.22;90.31;101379.41;7316618;19;20489;-68
2023/12/06 11:23:59;;;;;;;;;;;;;;;7.27;90.27;101374.66;7309719;19;20357;-68
2023/12/06 11:26:27;;;;;;;;;;;;;;;7.31;90.05;101376.06;7308335;19;19948;-67
2023/12/06 11:28:55;;;;;;;;;;;;;;;7.35;89.68;101376.69;7325536;19;19919;-68
2023/12/06 11:31:37;;;;;;;;;;;;;;;7.38;89.65;101386.91;7325409;19;19919;-69
2023/12/06 11:34:11;;;;;;;;;;;;;;;7.43;90.14;101379.53;7326465;19;20314;-67
2023/12/06 11:36:39;;;;;;;;;;;;;;;7.51;90.31;101381.56;7328489;19;19919;-68
2023/12/06 11:39:14;;;;;;;;;;;;;;;7.54;90.11;101373.47;7321224;19;20217;-68
2023/12/06 11:41:45;;;;;;;;;;;;;;;7.63;90.64;101373.56;7314984;19;21185;-68
2023/12/06 11:44:16;;;;;;;;;;;;;;;7.67;89.95;101376.78;7314947;19;20189;-67
2023/12/06 11:46:52;;;;;;;;;;;;;;;7.69;89.79;101373.09;7315429;19;20209;-67
2023/12/06 11:49:20;;;;;;;;;;;;;;;7.71;89.74;101363.34;7315006;19;19931;-69
2023/12/06 11:51:53;;;;;;;;;;;;;;;7.77;88.89;101371.69;7310035;19;19918;-69
2023/12/06 11:54:22;;;;;;;;;;;;;;;7.71;89.07;101370.38;7312898;19;19926;-69
2023/12/06 11:56:50;;;;;;;;;;;;;;;7.68;88.72;101367.97;7312419;19;19922;-69
2023/12/06 11:59:17;;;;;;;;;;;;;;;7.69;88.98;101373.09;7309998;19;19923;-69
2023/12/06 12:01:45;;;;;;;;;;;;;;;7.72;88.11;101364.16;7305769;19;19995;-67
2023/12/06 12:04:14;;;;;;;;;;;;;;;7.75;88.20;101363.94;7310302;19;19933;-66
2023/12/06 12:06:49;;;;;;;;;;;;;;;7.76;88.18;101368.22;7306495;19;19926;-69
2023/12/06 12:09:17;;;;;;;;;;;;;;;7.77;88.04;101358.59;7297857;19;20432;-68
2023/12/06 12:11:46;;;;;;;;;;;;;;;7.80;88.21;101359.16;7312359;19;19926;-70
2023/12/06 12:14:13;;;;;;;;;;;;;;;7.81;88.54;101365.22;7307954;19;19914;-68
2023/12/06 12:16:41;;;;;;;;;;;;;;;7.83;88.61;101355.44;7294948;19;20005;-68
2023/12/06 12:19:10;;;;;;;;;;;;;;;7.85;88.89;101359.63;7308580;19;19923;-68
2023/12/06 12:21:38;;;;;;;;;;;;;;;7.86;88.94;101356.06;7310295;19;21451;-68
2023/12/06 12:24:06;;;;;;;;;;;;;;;7.86;89.55;101347.38;7315116;19;19941;-67
2023/12/06 12:26:37;;;;;;;;;;;;;;;7.85;88.41;101349.16;7309404;19;20022;-69
2023/12/06 12:29:15;;;;;;;;;;;;;;;7.87;88.64;101352.50;7320387;19;19970;-69
2023/12/06 12:31:42;;;;;;;;;;;;;;;7.87;88.77;101349.88;7308356;19;19938;-67
2023/12/06 12:34:10;;;;;;;;;;;;;;;7.90;88.69;101346.16;7315566;19;19974;-68
2023/12/06 12:36:38;;;;;;;;;;;;;;;7.93;89.40;101343.28;7313225;19;20183;-69
2023/12/06 12:39:11;;;;;;;;;;;;;;;7.95;88.92;101346.63;7296376;19;22422;-67
2023/12/06 12:41:47;;;;;;;;;;;;;;;7.94;87.72;101345.78;7317669;19;19931;-70
2023/12/06 12:44:14;;;;;;;;;;;;;;;7.96;87.98;101345.66;7322556;19;19929;-69
2023/12/06 12:46:45;;;;;;;;;;;;;;;7.93;87.79;101346.75;7323544;19;20009;-68
2023/12/06 12:49:31;;;;;;;;;;;;;;;7.92;87.15;101347.72;7312301;19;20479;-68
2023/12/06 12:52:01;;;;;;;;;;;;;;;7.94;86.89;101340.53;7306641;19;20025;-68
2023/12/06 12:54:28;;;;;;;;;;;;;;;7.96;86.85;101346.50;7311508;19;20798;-68